createdAt,value
2023-01-10T00:00:24.601Z,9.57
2023-01-10T00:02:52.046Z,9.30
2023-01-10T00:05:19.387Z,9.93
2023-01-10T00:07:46.490Z,9.45
2023-01-10T00:10:14.153Z,9.60
2023-01-10T00:12:59.953Z,9.80
2023-01-10T00:15:27.072Z,8.85
2023-01-10T00:17:54.228Z,9.40
2023-01-10T00:20:21.351Z,16.50
2023-01-10T00:22:50.475Z,12.60
2023-01-10T00:25:20.073Z,13.05
2023-01-10T00:27:49.696Z,10.88
2023-01-10T00:30:17.056Z,10.07
2023-01-10T00:32:44.734Z,13.88
2023-01-10T00:35:12.251Z,10.43
2023-01-10T00:37:39.805Z,7.30
2023-01-10T00:40:10.575Z,8.63
2023-01-10T00:42:56.392Z,9.38
2023-01-10T00:45:24.999Z,7.15
2023-01-10T00:47:52.396Z,6.10
2023-01-10T00:50:19.643Z,5.97
2023-01-10T00:52:46.726Z,5.60
2023-01-10T00:55:13.830Z,5.32
2023-01-10T00:57:42.216Z,6.72
2023-01-10T01:00:10.117Z,10.98
2023-01-10T01:02:37.390Z,9.40
2023-01-10T01:05:05.119Z,7.07
2023-01-10T01:07:32.308Z,7.38
2023-01-10T01:10:17.964Z,8.63
2023-01-10T01:12:45.156Z,8.57
2023-01-10T01:15:12.266Z,7.55
2023-01-10T01:17:39.720Z,8.35
2023-01-10T01:20:07.113Z,8.93
2023-01-10T01:22:34.258Z,8.07
2023-01-10T01:25:01.413Z,6.07
2023-01-10T01:27:28.502Z,6.53
2023-01-10T01:29:55.612Z,7.00
2023-01-10T01:32:22.779Z,6.03
2023-01-10T01:34:50.148Z,6.60
2023-01-10T01:37:19.559Z,6.53
2023-01-10T01:39:47.092Z,7.87
2023-01-10T01:42:33.352Z,7.95
2023-01-10T01:45:23.583Z,10.45
2023-01-10T01:47:58.233Z,9.88
2023-01-10T01:50:28.188Z,6.93
2023-01-10T01:52:55.916Z,8.02
2023-01-10T01:55:23.370Z,7.97
2023-01-10T01:57:50.499Z,6.80
2023-01-10T02:00:17.742Z,5.97
2023-01-10T02:03:01.242Z,6.33
2023-01-10T02:05:29.180Z,4.95
2023-01-10T02:07:56.826Z,5.57
2023-01-10T02:10:28.610Z,5.20
2023-01-10T02:12:55.740Z,5.72
2023-01-10T02:15:22.843Z,6.05
2023-01-10T02:17:50.594Z,6.25
2023-01-10T02:20:18.281Z,5.70
2023-01-10T02:22:54.572Z,5.60
2023-01-10T02:25:40.267Z,5.90
2023-01-10T02:28:25.695Z,4.90
2023-01-10T02:30:55.961Z,6.43
2023-01-10T02:33:24.553Z,6.07
2023-01-10T02:35:52.055Z,6.95
2023-01-10T02:38:34.452Z,6.13
2023-01-10T02:41:07.111Z,6.10
2023-01-10T02:43:35.590Z,6.60
2023-01-10T02:46:12.856Z,6.80
2023-01-10T02:48:39.995Z,5.03
2023-01-10T02:51:16.126Z,9.35
2023-01-10T02:53:45.234Z,8.02
2023-01-10T02:56:31.177Z,12.30
2023-01-10T02:59:07.830Z,12.77
2023-01-10T03:01:56.384Z,6.43
2023-01-10T03:04:26.145Z,9.90
2023-01-10T03:06:56.140Z,8.00
2023-01-10T03:09:26.353Z,8.27
2023-01-10T03:11:54.960Z,8.27
2023-01-10T03:14:25.791Z,6.35
2023-01-10T03:16:59.928Z,4.97
2023-01-10T03:19:28.314Z,4.50
2023-01-10T03:21:57.312Z,4.57
2023-01-10T03:24:25.897Z,4.60
2023-01-10T03:26:53.037Z,4.33
2023-01-10T03:29:22.711Z,4.90
2023-01-10T03:31:51.661Z,6.55
2023-01-10T03:34:18.766Z,7.38
2023-01-10T03:36:45.896Z,7.65
2023-01-10T03:39:31.974Z,5.57
2023-01-10T03:42:05.131Z,6.60
2023-01-10T03:44:53.853Z,5.97
2023-01-10T03:47:31.910Z,7.50
2023-01-10T03:50:09.750Z,7.25
2023-01-10T03:52:37.126Z,6.40
2023-01-10T03:55:05.317Z,6.22
2023-01-10T03:57:32.766Z,4.60
2023-01-10T03:59:59.879Z,4.25
2023-01-10T04:02:30.818Z,4.93
2023-01-10T04:04:59.034Z,5.70
2023-01-10T04:07:26.338Z,6.53
2023-01-10T04:09:53.447Z,7.47
2023-01-10T04:12:20.591Z,8.57
2023-01-10T04:14:47.892Z,9.90
2023-01-10T04:17:15.420Z,8.63
2023-01-10T04:19:42.585Z,7.40
2023-01-10T04:22:09.964Z,6.00
2023-01-10T04:24:37.076Z,6.37
2023-01-10T04:27:04.280Z,6.73
2023-01-10T04:29:31.385Z,6.70
2023-01-10T04:31:58.491Z,5.03
2023-01-10T04:34:25.605Z,5.10
2023-01-10T04:36:52.712Z,4.40
2023-01-10T04:39:19.812Z,4.67
2023-01-10T04:41:46.935Z,4.40
2023-01-10T04:44:14.117Z,3.67
2023-01-10T04:46:41.235Z,4.90
2023-01-10T04:49:09.834Z,3.77
2023-01-10T04:51:36.957Z,4.37
2023-01-10T04:54:04.087Z,6.10
2023-01-10T04:56:31.224Z,8.30
2023-01-10T04:58:58.332Z,3.50
2023-01-10T05:01:25.963Z,4.20
2023-01-10T05:03:53.951Z,6.80
2023-01-10T05:06:21.224Z,4.60
2023-01-10T05:08:48.356Z,3.73
2023-01-10T05:11:15.539Z,3.70
2023-01-10T05:13:42.851Z,4.43
2023-01-10T05:16:10.073Z,4.90
2023-01-10T05:18:37.245Z,5.07
2023-01-10T05:21:05.124Z,5.30
2023-01-10T05:23:32.251Z,3.60
2023-01-10T05:25:59.427Z,3.90
2023-01-10T05:28:26.535Z,3.50
2023-01-10T05:30:53.681Z,3.10
2023-01-10T05:33:20.819Z,3.53
2023-01-10T05:35:47.917Z,4.03
2023-01-10T05:38:15.014Z,6.33
2023-01-10T05:40:42.158Z,6.77
2023-01-10T05:43:11.799Z,3.67
2023-01-10T05:45:38.996Z,3.77
2023-01-10T05:48:06.225Z,4.47
2023-01-10T05:50:33.354Z,2.40
2023-01-10T05:53:04.504Z,4.20
2023-01-10T05:55:31.636Z,4.53
2023-01-10T05:57:58.726Z,4.07
2023-01-10T06:00:25.923Z,7.53
2023-01-10T06:02:56.471Z,7.47
2023-01-10T06:05:24.068Z,6.77
2023-01-10T06:07:51.387Z,8.10
2023-01-10T06:10:18.685Z,7.73
2023-01-10T06:12:45.973Z,9.00
2023-01-10T06:15:13.092Z,8.47
2023-01-10T06:17:40.271Z,8.80
2023-01-10T06:20:07.566Z,6.67
2023-01-10T06:22:34.723Z,15.03
2023-01-10T06:25:02.601Z,27.40
2023-01-10T06:27:29.930Z,39.03
2023-01-10T06:29:57.040Z,23.60
2023-01-10T06:32:24.158Z,13.63
2023-01-10T06:34:51.252Z,6.23
2023-01-10T06:37:20.230Z,4.70
2023-01-10T06:39:47.486Z,3.07
2023-01-10T06:42:14.580Z,2.33
2023-01-10T06:44:41.671Z,2.30
2023-01-10T06:47:08.800Z,2.20
2023-01-10T06:49:35.897Z,2.37
2023-01-10T06:52:02.994Z,2.37
2023-01-10T06:54:30.171Z,2.10
2023-01-10T06:56:57.266Z,2.80
2023-01-10T06:59:24.383Z,9.73
2023-01-10T07:01:51.788Z,4.40
2023-01-10T07:04:18.931Z,3.33
2023-01-10T07:06:46.124Z,2.07
2023-01-10T07:09:13.269Z,2.50
2023-01-10T07:11:40.376Z,2.80
2023-01-10T07:14:09.718Z,2.47
2023-01-10T07:16:36.880Z,5.93
2023-01-10T07:19:04.009Z,13.33
2023-01-10T07:21:31.108Z,16.47
2023-01-10T07:23:58.274Z,23.23
2023-01-10T07:26:25.418Z,32.37
2023-01-10T07:28:52.547Z,56.70
2023-01-10T07:31:20.232Z,61.90
2023-01-10T07:33:47.457Z,69.47
2023-01-10T07:36:14.705Z,62.90
2023-01-10T07:38:41.823Z,58.77
2023-01-10T07:41:08.985Z,54.30
2023-01-10T07:43:36.216Z,56.53
2023-01-10T07:46:03.830Z,57.87
2023-01-10T07:48:31.069Z,57.33
2023-01-10T07:50:58.614Z,57.13
2023-01-10T07:53:26.002Z,50.97
2023-01-10T07:55:53.179Z,47.60
2023-01-10T07:58:20.629Z,48.83
2023-01-10T08:00:50.328Z,47.17
2023-01-10T08:03:17.840Z,36.30
2023-01-10T08:05:45.255Z,30.60
2023-01-10T08:08:12.839Z,25.20
2023-01-10T08:10:40.412Z,26.00
2023-01-10T08:13:18.313Z,26.37
2023-01-10T08:15:47.358Z,36.70
2023-01-10T08:18:14.678Z,34.70
2023-01-10T08:20:41.944Z,31.13
2023-01-10T08:23:09.096Z,34.67
2023-01-10T08:25:37.958Z,35.80
2023-01-10T08:28:06.445Z,31.73
2023-01-10T08:30:33.581Z,27.40
2023-01-10T08:33:02.741Z,26.00
2023-01-10T08:35:30.022Z,26.33
2023-01-10T08:38:00.316Z,37.30
2023-01-10T08:40:27.643Z,41.27
2023-01-10T08:42:58.930Z,43.47
2023-01-10T08:45:26.073Z,43.77
2023-01-10T08:47:53.784Z,42.67
2023-01-10T08:50:20.927Z,46.10
2023-01-10T08:52:48.110Z,43.93
2023-01-10T08:55:15.261Z,49.63
2023-01-10T08:57:42.352Z,55.90
2023-01-10T09:00:09.881Z,60.87
2023-01-10T09:02:37.027Z,64.73
2023-01-10T09:05:06.256Z,55.17
2023-01-10T09:07:33.489Z,49.60
2023-01-10T09:10:00.587Z,48.50
2023-01-10T09:12:46.237Z,47.13
2023-01-10T09:15:13.359Z,45.33
2023-01-10T09:17:40.503Z,44.00
2023-01-10T09:20:10.110Z,41.07
2023-01-10T09:22:37.865Z,44.30
2023-01-10T09:25:05.312Z,43.13
2023-01-10T09:27:32.456Z,49.37
2023-01-10T09:29:59.607Z,45.63
2023-01-10T09:32:26.787Z,51.87
2023-01-10T09:34:53.998Z,58.00
2023-01-10T09:37:21.149Z,48.10
2023-01-10T09:39:48.264Z,44.50
2023-01-10T09:42:20.224Z,41.37
2023-01-10T09:45:06.141Z,40.87
2023-01-10T09:47:40.410Z,41.60
2023-01-10T09:50:11.466Z,34.60
2023-01-10T09:52:40.723Z,36.23
2023-01-10T09:55:26.624Z,32.60
2023-01-10T09:57:54.219Z,25.90
2023-01-10T10:00:25.668Z,29.50
2023-01-10T10:02:53.258Z,34.70
2023-01-10T10:05:27.236Z,32.83
2023-01-10T10:07:55.366Z,34.03
2023-01-10T10:10:23.505Z,39.57
2023-01-10T10:12:56.534Z,41.23
2023-01-10T10:15:33.395Z,45.43
2023-01-10T10:18:03.798Z,48.10
2023-01-10T10:20:40.260Z,45.67
2023-01-10T10:23:28.360Z,50.93
2023-01-10T10:26:16.274Z,69.07
2023-01-10T10:28:54.968Z,70.53
2023-01-10T10:31:40.975Z,62.63
2023-01-10T10:34:28.652Z,53.07
2023-01-10T10:36:57.288Z,42.30
2023-01-10T10:39:39.745Z,55.20
2023-01-10T10:42:07.313Z,37.07
2023-01-10T10:44:53.371Z,42.13
2023-01-10T10:47:23.792Z,49.33
2023-01-10T10:49:51.083Z,47.50
2023-01-10T10:52:20.907Z,51.73
2023-01-10T10:54:48.046Z,51.40
2023-01-10T10:57:15.148Z,53.90
2023-01-10T10:59:42.363Z,59.57
2023-01-10T11:02:32.734Z,58.47
2023-01-10T11:05:04.209Z,58.63
2023-01-10T11:07:35.039Z,62.60
2023-01-10T11:10:03.474Z,60.30
2023-01-10T11:12:33.250Z,63.00
2023-01-10T11:15:01.888Z,57.60
2023-01-10T11:17:30.029Z,59.77
2023-01-10T11:20:00.173Z,65.00
2023-01-10T11:22:28.624Z,67.93
2023-01-10T11:24:59.520Z,71.37
2023-01-10T11:27:27.525Z,59.60
2023-01-10T11:30:04.423Z,74.67
2023-01-10T11:32:35.449Z,90.67
2023-01-10T11:35:03.503Z,96.07
2023-01-10T11:37:32.595Z,99.80
2023-01-10T11:40:18.651Z,105.43
2023-01-10T11:42:46.044Z,96.97
2023-01-10T11:45:19.409Z,88.47
2023-01-10T11:48:05.374Z,89.43
2023-01-10T11:50:33.196Z,89.10
2023-01-10T11:53:00.295Z,93.67
2023-01-10T11:55:28.573Z,93.63
2023-01-10T11:58:06.404Z,77.93
2023-01-10T12:00:44.554Z,54.80
2023-01-10T12:03:29.256Z,58.47
2023-01-10T12:05:57.838Z,45.73
2023-01-10T12:08:26.287Z,39.13
2023-01-10T12:11:19.779Z,37.83
2023-01-10T12:13:50.455Z,26.60
2023-01-10T12:16:27.982Z,23.73
2023-01-10T12:19:08.237Z,35.90
2023-01-10T12:21:38.031Z,41.40
2023-01-10T12:24:07.199Z,66.43
2023-01-10T12:26:34.351Z,83.83
2023-01-10T12:29:09.284Z,91.77
2023-01-10T12:31:36.454Z,85.63
2023-01-10T12:34:05.525Z,83.50
2023-01-10T12:36:32.645Z,86.63
2023-01-10T12:39:14.253Z,93.07
2023-01-10T12:42:19.188Z,96.93
2023-01-10T12:44:46.976Z,86.33
2023-01-10T12:47:17.048Z,91.47
2023-01-10T12:49:49.915Z,87.17
2023-01-10T12:52:40.848Z,74.10
2023-01-10T12:55:08.036Z,74.37
2023-01-10T12:57:38.583Z,70.47
2023-01-10T13:00:06.435Z,70.07
2023-01-10T13:02:39.346Z,65.43
2023-01-10T13:05:06.697Z,64.10
2023-01-10T13:07:34.504Z,67.37
2023-01-10T13:10:04.670Z,63.83
2023-01-10T13:12:36.303Z,71.43
2023-01-10T13:15:03.403Z,81.33
2023-01-10T13:17:30.533Z,92.07
2023-01-10T13:20:30.336Z,95.50
2023-01-10T13:22:58.076Z,89.47
2023-01-10T13:25:26.456Z,90.30
2023-01-10T13:28:06.838Z,81.40
2023-01-10T13:30:37.316Z,75.73
2023-01-10T13:33:08.236Z,59.27
2023-01-10T13:35:42.120Z,63.83
2023-01-10T13:38:19.629Z,54.00
2023-01-10T13:41:05.684Z,57.63
2023-01-10T13:43:36.623Z,52.10
2023-01-10T13:46:16.086Z,62.77
2023-01-10T13:48:43.850Z,62.73
2023-01-10T13:51:14.861Z,68.57
2023-01-10T13:53:43.512Z,65.77
2023-01-10T13:56:29.339Z,60.03
2023-01-10T13:59:15.422Z,62.50
2023-01-10T14:02:01.481Z,63.73
2023-01-10T14:04:32.496Z,62.07
2023-01-10T14:07:06.785Z,57.27
2023-01-10T14:09:36.172Z,55.63
2023-01-10T14:12:04.035Z,56.80
2023-01-10T14:14:40.845Z,55.77
2023-01-10T14:17:10.981Z,52.03
2023-01-10T14:19:38.185Z,51.07
2023-01-10T14:22:05.342Z,54.83
2023-01-10T14:24:36.715Z,53.07
2023-01-10T14:27:03.863Z,50.23
2023-01-10T14:29:31.830Z,50.67
2023-01-10T14:31:59.229Z,56.77
2023-01-10T14:34:30.510Z,56.10
2023-01-10T14:37:02.041Z,58.20
2023-01-10T14:39:29.216Z,62.57
2023-01-10T14:41:59.921Z,66.47
2023-01-10T14:44:27.098Z,48.07
2023-01-10T14:46:55.135Z,36.10
2023-01-10T14:49:22.226Z,35.47
2023-01-10T14:51:50.687Z,44.67
2023-01-10T14:54:18.804Z,48.77
2023-01-10T14:56:49.522Z,55.77
2023-01-10T14:59:28.685Z,49.63
2023-01-10T15:01:59.223Z,55.70
2023-01-10T15:04:27.662Z,59.37
2023-01-10T15:07:00.042Z,65.03
2023-01-10T15:09:27.714Z,69.00
2023-01-10T15:11:54.862Z,84.33
2023-01-10T15:14:23.572Z,74.10
2023-01-10T15:16:50.719Z,72.37
2023-01-10T15:19:21.220Z,77.77
2023-01-10T15:21:48.510Z,78.43
2023-01-10T15:24:34.534Z,80.40
2023-01-10T15:27:11.765Z,82.20
2023-01-10T15:29:44.534Z,78.67
2023-01-10T15:32:12.426Z,73.47
2023-01-10T15:34:39.723Z,71.43
2023-01-10T15:37:07.040Z,74.13
2023-01-10T15:39:38.264Z,73.37
2023-01-10T15:42:08.461Z,72.13
2023-01-10T15:44:39.769Z,80.73
2023-01-10T15:47:07.217Z,83.80
2023-01-10T15:49:34.403Z,84.33
2023-01-10T15:52:01.591Z,84.70
2023-01-10T15:54:29.609Z,83.00
2023-01-10T15:56:58.322Z,89.70
2023-01-10T15:59:29.225Z,90.43
2023-01-10T16:01:57.602Z,115.10
2023-01-10T16:04:24.852Z,118.83
2023-01-10T16:06:53.336Z,118.07
2023-01-10T16:09:20.919Z,121.83
2023-01-10T16:12:07.542Z,118.00
2023-01-10T16:14:34.758Z,105.57
2023-01-10T16:17:02.176Z,76.47
2023-01-10T16:19:29.323Z,92.00
2023-01-10T16:21:59.960Z,107.47
2023-01-10T16:24:36.585Z,110.83
2023-01-10T16:27:05.690Z,106.17
2023-01-10T16:29:33.129Z,99.93
2023-01-10T16:32:00.307Z,103.53
2023-01-10T16:34:27.481Z,104.93
2023-01-10T16:36:54.652Z,103.47
2023-01-10T16:39:22.900Z,105.70
2023-01-10T16:42:08.771Z,104.40
2023-01-10T16:44:35.983Z,75.10
2023-01-10T16:47:06.428Z,101.43
2023-01-10T16:49:33.992Z,106.13
2023-01-10T16:52:01.136Z,96.73
2023-01-10T16:54:28.394Z,92.33
2023-01-10T16:56:55.870Z,78.40
2023-01-10T16:59:23.103Z,69.70
2023-01-10T17:01:50.377Z,65.90
2023-01-10T17:04:20.344Z,68.93
2023-01-10T17:06:47.505Z,105.87
2023-01-10T17:09:21.099Z,85.87
2023-01-10T17:11:48.230Z,86.00
2023-01-10T17:14:15.338Z,73.43
2023-01-10T17:16:42.693Z,61.50
2023-01-10T17:19:09.859Z,60.90
2023-01-10T17:21:36.993Z,101.00
2023-01-10T17:24:04.105Z,91.50
2023-01-10T17:26:31.248Z,80.40
2023-01-10T17:28:58.355Z,84.63
2023-01-10T17:31:25.490Z,85.40
2023-01-10T17:33:52.707Z,97.03
2023-01-10T17:36:20.136Z,101.60
2023-01-10T17:38:47.236Z,108.03
2023-01-10T17:41:14.372Z,90.23
2023-01-10T17:43:41.478Z,73.80
2023-01-10T17:46:08.620Z,67.27
2023-01-10T17:48:36.138Z,79.23
2023-01-10T17:51:03.534Z,82.03
2023-01-10T17:53:30.708Z,81.53
2023-01-10T17:56:00.253Z,71.37
2023-01-10T17:58:27.449Z,64.83
2023-01-10T18:00:54.650Z,62.77
2023-01-10T18:03:21.817Z,56.17
2023-01-10T18:05:50.017Z,51.30
2023-01-10T18:08:17.112Z,52.80
2023-01-10T18:10:44.266Z,56.63
2023-01-10T18:13:12.311Z,60.67
2023-01-10T18:15:43.132Z,55.70
2023-01-10T18:18:10.506Z,48.63
2023-01-10T18:20:40.610Z,50.57
2023-01-10T18:23:23.138Z,48.10
2023-01-10T18:25:57.239Z,49.60
2023-01-10T18:28:39.598Z,52.33
2023-01-10T18:31:08.237Z,45.97
2023-01-10T18:33:35.813Z,44.27
2023-01-10T18:36:03.435Z,53.40
2023-01-10T18:38:34.026Z,56.70
2023-01-10T18:41:01.171Z,59.90
2023-01-10T18:43:29.793Z,64.97
2023-01-10T18:46:00.740Z,64.80
2023-01-10T18:48:27.968Z,63.53
2023-01-10T18:50:55.468Z,62.03
2023-01-10T18:53:22.635Z,59.07
2023-01-10T18:55:59.547Z,52.13
2023-01-10T18:58:27.077Z,50.37
2023-01-10T19:00:54.327Z,44.23
2023-01-10T19:03:22.798Z,43.27
2023-01-10T19:05:49.993Z,47.70
2023-01-10T19:08:17.313Z,63.53
2023-01-10T19:11:11.443Z,69.37
2023-01-10T19:13:32.593Z,64.27
2023-01-10T19:16:18.711Z,60.93
2023-01-10T19:18:49.093Z,56.43
2023-01-10T19:21:16.251Z,58.27
2023-01-10T19:23:46.761Z,54.30
2023-01-10T19:26:14.053Z,47.00
2023-01-10T19:28:41.813Z,43.97
2023-01-10T19:31:09.090Z,42.87
2023-01-10T19:33:37.614Z,40.87
2023-01-10T19:36:05.584Z,44.70
2023-01-10T19:38:32.718Z,40.73
2023-01-10T19:40:59.802Z,39.57
2023-01-10T19:43:26.903Z,39.43
2023-01-10T19:45:54.419Z,44.30
2023-01-10T19:48:22.362Z,46.77
2023-01-10T19:50:49.577Z,49.73
2023-01-10T19:53:16.822Z,47.47
2023-01-10T19:55:43.925Z,48.30
2023-01-10T19:58:11.047Z,48.83
2023-01-10T20:00:38.204Z,50.87
2023-01-10T20:03:07.668Z,52.63
2023-01-10T20:05:36.255Z,69.50
2023-01-10T20:08:04.937Z,83.03
2023-01-10T20:10:32.133Z,62.03
2023-01-10T20:12:59.229Z,62.13
2023-01-10T20:15:26.383Z,63.17
2023-01-10T20:17:53.486Z,67.50
2023-01-10T20:20:20.695Z,65.57
2023-01-10T20:22:48.351Z,67.93
2023-01-10T20:25:15.513Z,59.70
2023-01-10T20:27:42.640Z,59.80
2023-01-10T20:30:13.897Z,58.63
2023-01-10T20:32:41.050Z,55.27
2023-01-10T20:35:08.279Z,57.00
2023-01-10T20:37:35.432Z,51.70
2023-01-10T20:40:02.639Z,50.67
2023-01-10T20:42:29.796Z,47.27
2023-01-10T20:44:56.992Z,46.83
2023-01-10T20:47:24.152Z,43.00
2023-01-10T20:49:51.262Z,42.23
2023-01-10T20:52:18.389Z,47.30
2023-01-10T20:54:45.496Z,47.20
2023-01-10T20:57:12.594Z,53.00
2023-01-10T20:59:39.737Z,50.90
2023-01-10T21:02:06.945Z,51.40
2023-01-10T21:04:34.108Z,51.40
2023-01-10T21:07:01.342Z,52.33
2023-01-10T21:09:28.563Z,52.60
2023-01-10T21:12:10.394Z,55.00
2023-01-10T21:14:42.767Z,56.03
2023-01-10T21:17:09.978Z,57.90
2023-01-10T21:19:37.078Z,52.27
2023-01-10T21:22:04.254Z,57.93
2023-01-10T21:24:31.446Z,52.23
2023-01-10T21:26:58.582Z,50.37
2023-01-10T21:29:25.714Z,42.73
2023-01-10T21:31:53.230Z,39.13
2023-01-10T21:34:20.952Z,44.03
2023-01-10T21:36:48.124Z,43.43
2023-01-10T21:39:15.223Z,51.17
2023-01-10T21:42:00.758Z,52.00
2023-01-10T21:44:27.928Z,40.47
2023-01-10T21:46:55.085Z,39.53
2023-01-10T21:49:22.356Z,42.03
2023-01-10T21:51:49.485Z,39.47
2023-01-10T21:54:16.662Z,51.67
2023-01-10T21:56:43.805Z,47.70
2023-01-10T21:59:10.932Z,47.63
2023-01-10T22:01:38.024Z,47.47
2023-01-10T22:04:05.183Z,46.40
2023-01-10T22:06:32.478Z,48.83
2023-01-10T22:08:59.680Z,48.23
2023-01-10T22:11:26.832Z,45.03
2023-01-10T22:13:54.974Z,43.03
2023-01-10T22:16:22.118Z,45.87
2023-01-10T22:18:49.870Z,50.23
2023-01-10T22:21:19.623Z,51.97
2023-01-10T22:23:46.804Z,52.00
2023-01-10T22:26:14.965Z,50.67
2023-01-10T22:28:42.140Z,54.80
2023-01-10T22:31:09.332Z,49.47
2023-01-10T22:33:37.242Z,53.37
2023-01-10T22:36:08.492Z,42.10
2023-01-10T22:38:35.592Z,41.53
2023-01-10T22:41:08.597Z,40.87
2023-01-10T22:43:36.172Z,46.60
2023-01-10T22:46:03.529Z,39.17
2023-01-10T22:48:30.728Z,31.97
2023-01-10T22:50:59.434Z,32.37
2023-01-10T22:53:27.375Z,37.53
2023-01-10T22:56:00.204Z,34.93
2023-01-10T22:58:27.385Z,38.27
2023-01-10T23:00:54.506Z,36.47
2023-01-10T23:03:21.645Z,35.87
2023-01-10T23:05:48.785Z,36.87
2023-01-10T23:08:15.875Z,34.87
2023-01-10T23:10:43.664Z,35.80
2023-01-10T23:13:10.781Z,32.97
2023-01-10T23:15:37.899Z,30.77
2023-01-10T23:18:05.061Z,27.87
2023-01-10T23:20:32.177Z,31.47
2023-01-10T23:22:59.331Z,33.63
2023-01-10T23:25:26.475Z,30.50
2023-01-10T23:27:53.832Z,29.30
2023-01-10T23:30:22.419Z,31.27
2023-01-10T23:32:51.269Z,29.67
2023-01-10T23:35:18.437Z,32.63
2023-01-10T23:37:45.531Z,32.33
2023-01-10T23:40:12.834Z,31.17
2023-01-10T23:42:39.939Z,29.33
2023-01-10T23:45:07.338Z,27.77
2023-01-10T23:47:34.518Z,27.47
2023-01-10T23:50:01.662Z,27.57
2023-01-10T23:52:28.768Z,28.70
2023-01-10T23:54:55.945Z,31.17
2023-01-10T23:57:23.031Z,31.73
2023-01-10T23:59:50.122Z,30.60
